Time;durP1;ratioP1;P1;durP2;ratioP2;P2;SDS_P1;SDS_P2;PMS_P1;PMS_P2;Temp;Humidity;BMP_temperature;BMP_pressure;BME280_temperature;BME280_humidity;BME280_pressure;Samples;Min_cycle;Max_cycle;Signal;HPM_P1;HPM_P2
2022/05/06 00:00:13;;;;;;;0.88;0.30;;;25.40;75.90;;;;;;5025239;28;20025;-74
2022/05/06 00:02:41;;;;;;;2.13;0.38;;;25.30;74.90;;;;;;5023017;28;20021;-75
2022/05/06 00:05:11;;;;;;;1.40;0.50;;;25.30;73.80;;;;;;5028157;28;20037;-77
2022/05/06 00:07:39;;;;;;;1.23;0.60;;;25.30;72.60;;;;;;5018033;28;20029;-75
2022/05/06 00:10:09;;;;;;;1.13;0.28;;;25.30;73.20;;;;;;5021490;28;20471;-76
2022/05/06 00:12:37;;;;;;;0.60;0.20;;;25.40;73.40;;;;;;5043436;28;20108;-76
2022/05/06 00:15:06;;;;;;;1.27;0.38;;;25.80;74.80;;;;;;5021911;28;20030;-76
2022/05/06 00:17:35;;;;;;;1.20;0.20;;;26.20;72.60;;;;;;5028024;28;20037;-78
2022/05/06 00:20:04;;;;;;;1.67;0.32;;;26.50;73.50;;;;;;5029261;28;20034;-77
2022/05/06 00:22:31;;;;;;;1.75;0.32;;;26.70;70.70;;;;;;5028955;28;20839;-76
2022/05/06 00:24:58;;;;;;;1.77;0.28;;;26.40;71.00;;;;;;5031524;28;20045;-76
2022/05/06 00:27:26;;;;;;;1.42;0.70;;;26.70;74.10;;;;;;4989621;28;30185;-77
2022/05/06 00:29:53;;;;;;;0.65;0.20;;;26.60;68.00;;;;;;4979591;28;20030;-76
2022/05/06 00:32:20;;;;;;;1.25;0.30;;;27.00;70.90;;;;;;4989708;28;20034;-78
2022/05/06 00:34:48;;;;;;;1.52;0.25;;;27.10;70.30;;;;;;5384301;23;20972;-77
2022/05/06 00:37:15;;;;;;;0.70;0.22;;;27.10;67.20;;;;;;5000790;28;20074;-77
2022/05/06 00:39:42;;;;;;;1.77;0.22;;;26.80;68.10;;;;;;5011316;28;20026;-77
2022/05/06 00:42:10;;;;;;;2.00;0.30;;;27.00;69.00;;;;;;4994955;28;20510;-77
2022/05/06 00:44:37;;;;;;;2.30;0.38;;;27.20;67.70;;;;;;5003705;28;20050;-77
2022/05/06 00:47:05;;;;;;;0.68;0.20;;;27.40;67.10;;;;;;4996177;28;20039;-76
2022/05/06 00:49:34;;;;;;;1.10;0.50;;;27.60;68.70;;;;;;4998186;28;20058;-79
2022/05/06 00:52:03;;;;;;;0.50;0.32;;;27.70;66.30;;;;;;4996312;28;20022;-81
2022/05/06 00:54:34;;;;;;;1.20;0.30;;;27.70;65.50;;;;;;5006324;28;20571;-80
2022/05/06 00:57:07;;;;;;;1.60;0.35;;;27.70;66.90;;;;;;5011500;28;20052;-78
2022/05/06 01:00:17;;;;;;;0.82;0.30;;;27.70;66.50;;;;;;5012459;28;20484;-80
2022/05/06 01:02:23;;;;;;;0.82;0.50;;;27.70;66.70;;;;;;5008485;28;20426;-76
2022/05/06 01:04:51;;;;;;;1.00;0.20;;;28.30;68.00;;;;;;5003981;28;20052;-76
2022/05/06 01:07:21;;;;;;;0.75;0.20;;;28.30;65.90;;;;;;5000175;28;20037;-74
2022/05/06 01:09:51;;;;;;;0.40;0.20;;;28.70;64.30;;;;;;4998664;28;20034;-74
2022/05/06 01:12:19;;;;;;;0.60;0.20;;;28.50;64.00;;;;;;5001015;28;20025;-76
2022/05/06 01:14:46;;;;;;;1.00;0.35;;;28.30;64.00;;;;;;4990874;28;20388;-74
2022/05/06 01:17:14;;;;;;;1.58;0.47;;;28.30;66.90;;;;;;4998545;28;20069;-75
2022/05/06 01:19:41;;;;;;;0.73;0.30;;;28.80;65.90;;;;;;4998524;28;20495;-75
2022/05/06 01:22:09;;;;;;;1.35;0.55;;;28.90;63.30;;;;;;4999273;28;20424;-75
2022/05/06 01:24:36;;;;;;;0.70;0.28;;;29.10;65.00;;;;;;4991086;28;20406;-75
2022/05/06 01:27:07;;;;;;;2.35;0.47;;;29.00;61.00;;;;;;5004598;28;20036;-75
2022/05/06 01:29:37;;;;;;;1.88;0.30;;;28.40;62.80;;;;;;4999628;28;20500;-75
2022/05/06 01:32:06;;;;;;;1.85;0.40;;;28.30;62.40;;;;;;4998015;28;20475;-74
2022/05/06 01:34:35;;;;;;;3.05;0.77;;;28.00;62.30;;;;;;5001815;28;20046;-75
2022/05/06 01:37:06;;;;;;;1.90;0.35;;;28.00;62.80;;;;;;4995415;28;20070;-77
2022/05/06 01:39:37;;;;;;;0.47;0.30;;;27.60;60.90;;;;;;5009961;28;20034;-76
2022/05/06 01:42:06;;;;;;;0.82;0.55;;;26.80;61.20;;;;;;5002062;28;20494;-75
2022/05/06 01:44:51;;;;;;;1.23;0.30;;;26.50;63.20;;;;;;5008444;28;20624;-75
2022/05/06 01:47:26;;;;;;;0.73;0.20;;;27.00;66.40;;;;;;5010558;28;20121;-76
2022/05/06 01:49:58;;;;;;;1.35;0.30;;;27.70;65.40;;;;;;5011642;28;20072;-78
2022/05/06 01:52:26;;;;;;;2.95;0.60;;;28.00;68.00;;;;;;5003885;28;20030;-76
2022/05/06 01:54:53;;;;;;;1.45;0.43;;;28.20;70.60;;;;;;5011324;28;20025;-75
2022/05/06 01:57:21;;;;;;;1.60;0.55;;;28.80;67.70;;;;;;5011679;28;20053;-79
2022/05/06 01:59:48;;;;;;;3.45;0.55;;;28.80;69.40;;;;;;4996880;28;20030;-75
2022/05/06 02:02:15;;;;;;;7.97;0.63;;;27.80;72.40;;;;;;5001685;28;20485;-75
2022/05/06 02:07:28;;;;;;;0.63;0.20;;;27.20;70.10;;;;;;5005903;28;20123;-72
2022/05/06 02:09:55;;;;;;;8.02;0.90;;;26.50;67.10;;;;;;5006934;28;20057;-72
2022/05/06 02:12:23;;;;;;;2.42;0.70;;;25.90;72.70;;;;;;4998314;28;20049;-71
2022/05/06 02:14:50;;;;;;;2.13;0.57;;;26.00;71.60;;;;;;5005618;28;20224;-83
2022/05/06 02:17:17;;;;;;;1.25;0.50;;;24.90;68.70;;;;;;5005113;28;20044;-82
2022/05/06 02:19:45;;;;;;;0.73;0.20;;;25.20;76.20;;;;;;4993848;28;20034;-85
2022/05/06 02:22:12;;;;;;;0.45;0.43;;;25.50;74.50;;;;;;5004734;28;20116;-83
2022/05/06 02:24:43;;;;;;;3.60;0.30;;;25.70;69.80;;;;;;5005413;28;20057;-79
2022/05/06 02:27:12;;;;;;;0.95;0.25;;;25.10;67.60;;;;;;4993595;28;20468;-82
2022/05/06 02:33:12;;;;;;;0.98;0.30;;;25.10;71.90;;;;;;5011994;28;20052;-79
2022/05/06 02:35:17;;;;;;;2.00;0.30;;;24.60;68.60;;;;;;4997509;28;20045;-73
2022/05/06 02:37:45;;;;;;;1.60;0.30;;;24.10;69.70;;;;;;4994449;28;20026;-76
2022/05/06 02:40:16;;;;;;;0.93;0.30;;;23.60;69.80;;;;;;5012809;28;20030;-82
2022/05/06 02:42:44;;;;;;;1.75;0.38;;;23.50;69.70;;;;;;5004118;28;20026;-81
2022/05/06 02:45:11;;;;;;;1.63;0.40;;;23.10;68.10;;;;;;5008156;28;20449;-73
2022/05/06 02:47:39;;;;;;;0.75;0.28;;;22.90;70.80;;;;;;5008860;28;20030;-73
2022/05/06 02:50:07;;;;;;;2.47;0.73;;;23.30;72.30;;;;;;5012159;28;20037;-72
2022/05/06 02:52:34;;;;;;;1.30;0.50;;;23.60;73.40;;;;;;5011997;28;20029;-73
2022/05/06 02:55:02;;;;;;;1.95;0.75;;;24.00;71.00;;;;;;5011909;28;20417;-72
2022/05/06 02:57:29;;;;;;;1.38;0.38;;;24.30;70.40;;;;;;5012307;28;20068;-72
2022/05/06 02:59:56;;;;;;;1.08;0.40;;;24.70;71.40;;;;;;5012286;28;20037;-74
2022/05/06 03:02:24;;;;;;;1.02;0.30;;;24.90;69.30;;;;;;4997024;28;20131;-72
2022/05/06 03:04:51;;;;;;;1.17;0.20;;;25.20;73.20;;;;;;5005103;28;20113;-73
2022/05/06 03:07:18;;;;;;;1.38;0.30;;;25.40;68.60;;;;;;5013891;28;20026;-73
2022/05/06 03:09:46;;;;;;;1.98;0.50;;;25.50;71.60;;;;;;5012185;28;20029;-72
2022/05/06 03:12:13;;;;;;;0.68;0.30;;;25.20;66.30;;;;;;4993870;28;20027;-73
2022/05/06 03:14:40;;;;;;;1.15;0.30;;;24.90;66.50;;;;;;5010568;28;20121;-72
2022/05/06 03:17:08;;;;;;;0.77;0.30;;;24.50;68.00;;;;;;5011640;28;20025;-72
2022/05/06 03:19:35;;;;;;;1.77;0.63;;;24.70;74.10;;;;;;5010872;28;20026;-81
2022/05/06 03:22:03;;;;;;;0.95;0.52;;;24.80;72.30;;;;;;5011838;28;20049;-77
2022/05/06 03:24:31;;;;;;;2.13;0.57;;;24.70;68.40;;;;;;5011450;28;20060;-78
2022/05/06 03:26:58;;;;;;;1.73;0.45;;;24.30;67.90;;;;;;5011679;28;20125;-72
2022/05/06 03:29:25;;;;;;;1.35;0.50;;;24.20;71.80;;;;;;5011555;28;20018;-74
2022/05/06 03:31:54;;;;;;;1.88;0.28;;;24.00;71.90;;;;;;5011723;28;20021;-81
2022/05/06 03:34:21;;;;;;;2.35;0.30;;;23.70;70.60;;;;;;5011485;28;20388;-79
2022/05/06 03:36:49;;;;;;;1.88;0.30;;;23.70;71.00;;;;;;5002903;28;20046;-72
2022/05/06 03:39:16;;;;;;;1.23;0.45;;;23.80;70.00;;;;;;4999724;28;20034;-72
2022/05/06 03:41:44;;;;;;;0.90;0.20;;;23.70;70.20;;;;;;5007798;28;20105;-72
2022/05/06 03:44:11;;;;;;;1.67;0.60;;;23.50;71.10;;;;;;5011248;28;20104;-73
2022/05/06 03:46:38;;;;;;;1.90;0.55;;;23.20;73.40;;;;;;5009675;28;20062;-73
2022/05/06 03:49:06;;;;;;;0.30;0.15;;;23.00;71.50;;;;;;4993815;28;20018;-73
2022/05/06 03:51:33;;;;;;;0.28;0.10;;;22.50;70.90;;;;;;4992001;28;20033;-73
2022/05/06 03:56:32;;;;;;;0.65;0.40;;;21.80;70.80;;;;;;4930034;29;20051;-75
2022/05/06 03:58:59;;;;;;;1.33;0.22;;;21.80;70.80;;;;;;4935648;29;20039;-74
2022/05/06 04:01:26;;;;;;;1.60;0.20;;;21.80;70.30;;;;;;4933434;29;20430;-73
2022/05/06 04:03:54;;;;;;;1.50;0.25;;;21.60;69.60;;;;;;4936487;29;20034;-74
2022/05/06 04:06:22;;;;;;;0.70;0.20;;;21.70;74.20;;;;;;4946116;29;20143;-71
2022/05/06 04:08:49;;;;;;;1.23;0.20;;;21.70;72.10;;;;;;4932127;29;20042;-72
2022/05/06 04:11:19;;;;;;;0.60;0.10;;;21.70;72.00;;;;;;4934457;29;20091;-72
2022/05/06 04:13:47;;;;;;;1.33;0.28;;;21.50;69.60;;;;;;4935233;29;20034;-75
2022/05/06 04:16:15;;;;;;;0.95;0.30;;;21.30;69.90;;;;;;4936434;29;20389;-73
2022/05/06 04:18:42;;;;;;;0.85;0.45;;;21.10;70.90;;;;;;4939322;29;20046;-75
2022/05/06 04:23:55;;;;;;;0.30;0.10;;;20.60;68.80;;;;;;4936180;29;20038;-71
2022/05/06 04:26:22;;;;;;;0.75;0.22;;;20.50;69.60;;;;;;4935894;29;20030;-72
2022/05/06 04:28:49;;;;;;;2.72;0.20;;;20.40;71.20;;;;;;4924776;29;20465;-75
2022/05/06 04:31:17;;;;;;;1.65;0.10;;;20.30;70.40;;;;;;4926243;29;20064;-74
2022/05/06 04:33:44;;;;;;;0.70;0.10;;;20.30;70.70;;;;;;4924086;29;20024;-73
2022/05/06 04:36:12;;;;;;;0.90;0.32;;;20.40;69.70;;;;;;4933352;29;20036;-74
2022/05/06 04:38:39;;;;;;;1.75;0.30;;;20.30;69.80;;;;;;4932425;29;20475;-74
2022/05/06 04:41:06;;;;;;;0.73;0.73;;;20.40;70.10;;;;;;4934102;29;20036;-72
2022/05/06 04:43:34;;;;;;;0.47;0.15;;;20.30;68.80;;;;;;4928089;29;20111;-75
2022/05/06 04:46:02;;;;;;;3.17;0.28;;;20.20;66.70;;;;;;4928174;29;20527;-72
2022/05/06 04:48:29;;;;;;;1.10;0.28;;;20.20;67.60;;;;;;4932574;29;20039;-73
2022/05/06 04:50:57;;;;;;;0.73;0.30;;;20.10;69.40;;;;;;4952609;29;20102;-73
2022/05/06 04:53:24;;;;;;;0.28;0.15;;;20.10;69.30;;;;;;4928851;29;20067;-73
2022/05/06 04:55:52;;;;;;;0.50;0.30;;;20.10;68.70;;;;;;4928604;29;20489;-73
2022/05/06 04:58:19;;;;;;;0.43;0.10;;;20.10;69.10;;;;;;4923794;29;20039;-74
2022/05/06 05:00:47;;;;;;;0.82;0.10;;;20.00;69.70;;;;;;4929924;29;20032;-74
2022/05/06 05:03:15;;;;;;;0.80;0.20;;;20.00;69.30;;;;;;4931055;29;20043;-73
2022/05/06 05:05:43;;;;;;;1.80;0.60;;;20.00;68.80;;;;;;4931524;29;20042;-72
2022/05/06 05:08:10;;;;;;;2.17;0.22;;;20.00;68.20;;;;;;4931138;29;20035;-73
2022/05/06 05:10:38;;;;;;;1.42;0.20;;;20.00;70.00;;;;;;4929878;29;20028;-74
2022/05/06 05:13:05;;;;;;;1.25;0.10;;;20.00;69.80;;;;;;4931348;29;20024;-73
2022/05/06 05:15:33;;;;;;;3.25;0.40;;;20.00;69.80;;;;;;4928323;29;20135;-73
2022/05/06 05:18:00;;;;;;;1.20;0.20;;;20.00;70.00;;;;;;4927391;29;20558;-74
2022/05/06 05:20:28;;;;;;;7.30;0.55;;;20.00;70.00;;;;;;4934772;29;20036;-73
2022/05/06 05:22:55;;;;;;;2.10;0.22;;;20.00;70.60;;;;;;4930994;29;20043;-75
2022/05/06 05:25:22;;;;;;;0.20;0.15;;;20.00;69.70;;;;;;4926245;29;20042;-73
2022/05/06 05:27:50;;;;;;;1.00;0.20;;;20.00;70.40;;;;;;4933511;29;20094;-73
2022/05/06 05:30:17;;;;;;;0.65;0.22;;;20.10;70.70;;;;;;4927978;29;20039;-71
2022/05/06 05:32:44;;;;;;;2.00;0.32;;;20.10;69.70;;;;;;4933014;29;20052;-73
2022/05/06 05:35:12;;;;;;;1.17;0.13;;;20.20;70.80;;;;;;4931184;29;20047;-72
2022/05/06 05:37:39;;;;;;;0.60;0.10;;;20.20;69.60;;;;;;4935187;29;20052;-72
2022/05/06 05:40:07;;;;;;;2.15;0.57;;;20.30;71.00;;;;;;4934761;29;20036;-72
2022/05/06 05:42:34;;;;;;;0.73;0.30;;;20.40;70.70;;;;;;4935758;29;20023;-73
2022/05/06 05:50:35;;;;;;;0.25;0.10;;;20.50;69.70;;;;;;4951929;29;20139;-76
2022/05/06 05:53:02;;;;;;;0.73;0.20;;;20.60;69.50;;;;;;4935398;28;20481;-74
2022/05/06 05:55:30;;;;;;;0.50;0.20;;;20.70;70.70;;;;;;4930319;28;20868;-71
2022/05/06 05:57:57;;;;;;;0.32;0.30;;;20.70;69.90;;;;;;5360117;23;20050;-75
2022/05/06 06:00:27;;;;;;;2.53;0.28;;;20.70;70.20;;;;;;4992377;28;20175;-74
2022/05/06 06:02:55;;;;;;;0.45;0.20;;;20.80;71.10;;;;;;4994949;28;20022;-69
2022/05/06 06:05:23;;;;;;;1.35;0.20;;;20.80;70.50;;;;;;4992357;28;20500;-73
2022/05/06 06:07:51;;;;;;;4.35;0.80;;;20.80;70.20;;;;;;4991113;28;20034;-71
2022/05/06 06:10:18;;;;;;;1.83;0.30;;;20.70;70.10;;;;;;4992698;28;20030;-73
2022/05/06 06:12:45;;;;;;;1.55;0.40;;;20.70;71.30;;;;;;4983603;28;20117;-74
2022/05/06 06:15:15;;;;;;;0.30;0.30;;;20.60;71.50;;;;;;4988889;28;20022;-75
2022/05/06 06:17:42;;;;;;;2.38;0.25;;;20.60;71.60;;;;;;4992063;28;20038;-73
2022/05/06 06:20:10;;;;;;;1.77;0.50;;;20.50;71.90;;;;;;4999081;28;20527;-75
2022/05/06 06:22:38;;;;;;;1.98;0.30;;;20.30;72.20;;;;;;4990298;28;20543;-75
2022/05/06 06:25:08;;;;;;;2.75;0.45;;;20.20;73.00;;;;;;4986798;28;20488;-74
2022/05/06 06:27:36;;;;;;;2.60;0.57;;;20.00;72.40;;;;;;4982159;28;20078;-74
2022/05/06 06:30:05;;;;;;;0.60;0.20;;;20.00;72.40;;;;;;5001740;28;20354;-74
2022/05/06 06:32:32;;;;;;;0.65;0.20;;;19.80;72.50;;;;;;5339200;23;20047;-76
2022/05/06 06:34:59;;;;;;;1.35;0.20;;;19.60;73.20;;;;;;4973851;23;20468;-68
2022/05/06 06:37:27;;;;;;;1.10;0.55;;;19.50;73.40;;;;;;4979562;28;20057;-79
2022/05/06 06:39:54;;;;;;;2.15;0.20;;;19.40;74.10;;;;;;4990957;28;20030;-77
2022/05/06 06:42:22;;;;;;;1.33;0.28;;;19.30;73.30;;;;;;4986865;28;20040;-76
2022/05/06 06:44:50;;;;;;;0.75;0.30;;;19.10;73.80;;;;;;4970342;28;20046;-75
2022/05/06 06:47:17;;;;;;;1.33;0.20;;;19.00;73.50;;;;;;4967838;28;20038;-75
2022/05/06 06:52:20;;;;;;;2.80;0.30;;;18.80;74.00;;;;;;5291186;23;20062;-74
2022/05/06 06:54:47;;;;;;;1.50;0.38;;;18.70;74.90;;;;;;4988325;28;20480;-74
2022/05/06 06:57:14;;;;;;;2.17;0.45;;;18.50;74.30;;;;;;4967610;28;20555;-75
2022/05/06 06:59:42;;;;;;;1.85;0.20;;;18.40;74.30;;;;;;4966748;28;20037;-73
2022/05/06 07:02:09;;;;;;;0.93;0.40;;;18.30;74.70;;;;;;4994849;23;20072;-74
2022/05/06 07:04:36;;;;;;;1.48;0.22;;;18.20;75.50;;;;;;4988279;28;20503;-76
2022/05/06 07:12:35;;;;;;;2.73;0.30;;;17.90;75.70;;;;;;4985063;28;20038;-74
2022/05/06 07:15:03;;;;;;;1.08;0.32;;;17.80;75.50;;;;;;4986889;28;20836;-75
2022/05/06 07:17:30;;;;;;;0.30;0.28;;;17.70;75.80;;;;;;4986776;28;20030;-75
2022/05/06 07:19:57;;;;;;;2.00;0.45;;;17.70;77.00;;;;;;4988401;28;20030;-75
2022/05/06 07:22:25;;;;;;;2.45;0.40;;;17.60;77.00;;;;;;4987091;28;20037;-76
2022/05/06 07:24:52;;;;;;;1.02;0.28;;;17.50;76.30;;;;;;4990141;28;20046;-75
2022/05/06 07:27:20;;;;;;;1.25;0.60;;;17.40;77.00;;;;;;4987813;28;20028;-75
2022/05/06 07:29:48;;;;;;;1.48;0.25;;;17.30;76.70;;;;;;4990198;28;20500;-74
2022/05/06 07:32:18;;;;;;;2.05;0.20;;;17.20;77.40;;;;;;4988021;28;20500;-74
2022/05/06 07:34:45;;;;;;;3.42;0.20;;;17.20;77.00;;;;;;4991333;28;20499;-74
2022/05/06 07:37:12;;;;;;;0.63;0.20;;;17.10;76.30;;;;;;4989250;28;20030;-73
2022/05/06 07:39:40;;;;;;;2.00;0.80;;;17.10;76.10;;;;;;4985720;28;20081;-72
2022/05/06 07:42:10;;;;;;;2.10;1.23;;;17.10;76.50;;;;;;4980313;28;20073;-73
2022/05/06 07:44:38;;;;;;;1.63;0.30;;;17.10;76.70;;;;;;4983677;28;20141;-72
2022/05/06 07:47:06;;;;;;;1.08;0.40;;;17.00;76.60;;;;;;4981389;28;20038;-74
2022/05/06 07:49:33;;;;;;;1.05;0.43;;;17.00;77.50;;;;;;4980487;28;21919;-73
2022/05/06 07:52:00;;;;;;;1.45;0.40;;;16.80;79.10;;;;;;4980326;28;20034;-73
2022/05/06 07:54:28;;;;;;;1.63;0.73;;;16.60;80.30;;;;;;4981427;28;20041;-73
2022/05/06 07:56:55;;;;;;;1.67;0.70;;;16.40;81.60;;;;;;4979908;28;20038;-74
2022/05/06 07:59:22;;;;;;;1.73;0.50;;;16.30;79.90;;;;;;4986758;28;20038;-73
2022/05/06 08:04:38;;;;;;;1.23;0.50;;;16.20;80.40;;;;;;4969554;28;20085;-74
2022/05/06 08:07:08;;;;;;;0.90;0.40;;;16.10;80.60;;;;;;4968381;28;20288;-72
2022/05/06 08:09:36;;;;;;;2.25;0.60;;;16.10;81.10;;;;;;4966596;28;20050;-68
2022/05/06 08:12:04;;;;;;;1.63;0.57;;;16.00;81.60;;;;;;4970840;28;20038;-73
2022/05/06 08:14:33;;;;;;;1.90;0.65;;;16.00;81.70;;;;;;4968738;28;20511;-73
2022/05/06 08:17:02;;;;;;;2.92;0.40;;;16.00;81.40;;;;;;4965916;28;20548;-74
2022/05/06 08:19:38;;;;;;;4.22;1.73;;;15.90;81.30;;;;;;4950886;28;20106;-78
2022/05/06 08:22:06;;;;;;;1.27;0.70;;;15.90;81.70;;;;;;4969178;28;20055;-74
2022/05/06 08:24:34;;;;;;;2.13;1.38;;;15.90;82.10;;;;;;4966683;28;20047;-72
2022/05/06 08:27:01;;;;;;;6.47;3.85;;;15.80;82.60;;;;;;4968484;28;20027;-74
2022/05/06 08:29:28;;;;;;;2.70;1.95;;;15.80;83.50;;;;;;4970147;28;20064;-74
2022/05/06 08:31:56;;;;;;;2.67;1.77;;;15.70;84.40;;;;;;4969146;28;20019;-72
2022/05/06 08:34:23;;;;;;;1.45;0.73;;;15.60;85.20;;;;;;4963387;28;20033;-74
2022/05/06 08:36:51;;;;;;;1.65;0.40;;;15.50;85.90;;;;;;4962609;28;20089;-74
2022/05/06 08:39:18;;;;;;;3.40;1.05;;;15.40;86.30;;;;;;4970185;28;20073;-73
2022/05/06 08:41:46;;;;;;;3.63;1.75;;;15.40;86.40;;;;;;4970319;28;20030;-74
2022/05/06 08:52:43;;;;;;;4.40;1.17;;;15.10;87.80;;;;;;4968815;28;20147;-73
2022/05/06 08:55:10;;;;;;;3.25;0.80;;;15.00;87.20;;;;;;4971455;28;20019;-72
2022/05/06 08:57:40;;;;;;;1.85;1.13;;;14.90;88.10;;;;;;4971451;28;20110;-74
2022/05/06 09:00:09;;;;;;;1.63;0.50;;;14.90;88.50;;;;;;4971920;28;20026;-74
2022/05/06 09:02:39;;;;;;;2.25;0.85;;;14.80;88.40;;;;;;4965691;28;20054;-73
2022/05/06 09:05:17;;;;;;;1.95;0.95;;;14.80;89.50;;;;;;4971798;28;20477;-73
2022/05/06 09:08:05;;;;;;;1.83;0.80;;;14.70;90.00;;;;;;4972085;28;20139;-73
2022/05/06 09:10:32;;;;;;;1.58;0.70;;;14.60;90.30;;;;;;4969840;28;20030;-74
2022/05/06 09:13:00;;;;;;;2.25;1.05;;;14.60;90.60;;;;;;4964815;28;20023;-73
2022/05/06 09:18:24;;;;;;;3.85;2.45;;;14.40;90.50;;;;;;4963014;28;20574;-73
2022/05/06 09:20:52;;;;;;;8.15;5.13;;;14.40;90.90;;;;;;4963445;28;20046;-73
2022/05/06 09:23:29;;;;;;;6.25;2.95;;;14.30;91.30;;;;;;4963815;28;20151;-73
2022/05/06 09:25:57;;;;;;;4.85;2.03;;;14.20;91.60;;;;;;4964915;28;20034;-73
2022/05/06 09:28:29;;;;;;;1.02;0.70;;;14.10;91.60;;;;;;4964972;28;20039;-73
2022/05/06 09:31:10;;;;;;;1.70;1.00;;;14.00;91.50;;;;;;4970582;28;20030;-74
2022/05/06 09:33:46;;;;;;;2.05;0.70;;;14.00;91.80;;;;;;4961652;28;20110;-74
2022/05/06 09:36:29;;;;;;;3.00;0.80;;;14.00;92.50;;;;;;4963257;28;20038;-72
2022/05/06 09:39:09;;;;;;;3.38;0.90;;;13.90;92.30;;;;;;4956478;28;20038;-73
2022/05/06 09:41:41;;;;;;;3.05;0.80;;;13.80;92.50;;;;;;4958741;28;20121;-75
2022/05/06 09:44:10;;;;;;;2.03;0.45;;;13.70;92.70;;;;;;4964793;28;20050;-71
2022/05/06 09:46:38;;;;;;;1.65;0.47;;;13.60;93.10;;;;;;4965199;28;20027;-72
2022/05/06 09:49:06;;;;;;;1.55;0.63;;;13.50;92.80;;;;;;4961191;28;20037;-72
2022/05/06 09:51:34;;;;;;;1.60;0.40;;;13.50;93.50;;;;;;4960943;28;20031;-72
2022/05/06 09:54:03;;;;;;;1.98;1.30;;;13.40;93.20;;;;;;4962681;28;20038;-71
2022/05/06 09:56:31;;;;;;;2.42;0.75;;;13.40;93.20;;;;;;4962288;28;20150;-73
2022/05/06 09:58:59;;;;;;;1.67;0.60;;;13.30;93.20;;;;;;4966969;28;20026;-74
2022/05/06 10:01:26;;;;;;;1.17;0.70;;;13.30;93.30;;;;;;4978142;28;20045;-72
2022/05/06 10:03:54;;;;;;;2.22;0.60;;;13.30;93.50;;;;;;4990769;28;20489;-72
2022/05/06 10:06:25;;;;;;;1.63;0.80;;;13.20;93.70;;;;;;4990466;28;20105;-71
2022/05/06 10:08:58;;;;;;;2.15;0.60;;;13.20;93.60;;;;;;4982616;28;20048;-72
2022/05/06 10:11:29;;;;;;;1.13;0.35;;;13.10;94.10;;;;;;4988348;28;20030;-73
2022/05/06 10:14:00;;;;;;;0.82;0.50;;;13.10;94.20;;;;;;4986099;28;20100;-72
2022/05/06 10:16:38;;;;;;;2.13;0.73;;;13.00;94.60;;;;;;4989959;28;20624;-70
2022/05/06 10:19:28;;;;;;;0.32;0.20;;;12.90;94.90;;;;;;4991453;28;20132;-72
2022/05/06 10:21:55;;;;;;;0.60;0.40;;;12.90;94.90;;;;;;4987004;28;20676;-73
2022/05/06 10:24:23;;;;;;;0.45;0.30;;;12.80;95.30;;;;;;4982120;28;20117;-74
2022/05/06 10:26:53;;;;;;;1.98;0.40;;;12.70;95.60;;;;;;4982719;28;20033;-73
2022/05/06 10:32:25;;;;;;;1.17;0.60;;;12.50;96.20;;;;;;4979424;28;20097;-73
2022/05/06 10:35:01;;;;;;;0.77;0.70;;;12.40;96.20;;;;;;4979670;28;20033;-75
2022/05/06 10:37:40;;;;;;;2.90;0.90;;;12.40;96.60;;;;;;4981342;28;20038;-75
2022/05/06 10:40:25;;;;;;;1.73;1.10;;;12.30;96.40;;;;;;4976540;28;20038;-73
2022/05/06 10:42:53;;;;;;;1.65;0.98;;;12.30;96.10;;;;;;4983942;28;20030;-74
2022/05/06 10:45:24;;;;;;;5.93;3.17;;;12.30;95.70;;;;;;4988260;28;20180;-73
2022/05/06 10:47:52;;;;;;;2.17;1.55;;;12.30;95.50;;;;;;4979110;28;20030;-73
2022/05/06 10:50:22;;;;;;;3.92;2.45;;;12.30;95.40;;;;;;4980816;28;20054;-74
2022/05/06 10:52:50;;;;;;;5.38;3.33;;;12.30;95.80;;;;;;4985600;28;20099;-74
2022/05/06 10:55:19;;;;;;;8.50;4.30;;;12.20;95.60;;;;;;4981047;28;20480;-74
2022/05/06 10:58:16;;;;;;;5.28;2.75;;;12.30;95.60;;;;;;4980981;28;20041;-76
2022/05/06 11:00:43;;;;;;;2.88;1.38;;;12.30;95.30;;;;;;4972802;28;20055;-74
2022/05/06 11:03:17;;;;;;;3.35;1.33;;;12.30;95.60;;;;;;4961257;28;20097;-74
2022/05/06 11:05:44;;;;;;;1.20;0.40;;;12.20;95.50;;;;;;4964060;28;20081;-72
2022/05/06 11:08:13;;;;;;;2.88;1.40;;;12.20;95.00;;;;;;4966806;28;20027;-73
2022/05/06 11:10:40;;;;;;;1.85;0.93;;;12.20;94.60;;;;;;4961549;28;20034;-73
2022/05/06 11:13:08;;;;;;;0.90;0.38;;;12.20;94.90;;;;;;4962712;28;20433;-74
2022/05/06 11:15:37;;;;;;;1.70;0.50;;;12.30;94.90;;;;;;4962316;28;20629;-74
2022/05/06 11:18:06;;;;;;;2.80;0.60;;;12.20;94.60;;;;;;4961438;28;20030;-74
2022/05/06 11:20:36;;;;;;;0.40;0.30;;;12.20;94.80;;;;;;4965897;28;20030;-74
2022/05/06 11:23:08;;;;;;;0.55;0.30;;;12.20;95.10;;;;;;4969894;28;20058;-73
2022/05/06 11:25:52;;;;;;;0.57;0.30;;;12.20;95.40;;;;;;4971296;28;20039;-75
2022/05/06 11:28:21;;;;;;;2.63;0.35;;;12.10;95.40;;;;;;4970174;28;20190;-74
2022/05/06 11:30:50;;;;;;;0.20;0.20;;;12.10;95.80;;;;;;4969993;28;20069;-75
2022/05/06 11:33:24;;;;;;;1.38;0.40;;;12.10;95.80;;;;;;4969648;28;20105;-73
2022/05/06 11:36:03;;;;;;;0.45;0.25;;;12.00;96.00;;;;;;4965241;28;20034;-74
2022/05/06 11:38:50;;;;;;;2.85;0.30;;;12.00;96.00;;;;;;4963062;28;20039;-72
2022/05/06 11:41:18;;;;;;;3.72;0.25;;;12.00;95.80;;;;;;4961222;28;20035;-73
2022/05/06 11:43:46;;;;;;;1.48;0.20;;;11.90;96.10;;;;;;4962612;28;20084;-72
2022/05/06 11:49:08;;;;;;;0.88;0.30;;;11.80;96.60;;;;;;4963233;28;20030;-72
2022/05/06 11:51:38;;;;;;;0.80;0.40;;;11.80;96.90;;;;;;4961399;28;20031;-73
2022/05/06 11:54:06;;;;;;;0.98;0.35;;;11.70;96.70;;;;;;4962281;28;20033;-73
2022/05/06 11:56:34;;;;;;;1.85;0.55;;;11.60;97.30;;;;;;4965521;28;20382;-71
2022/05/06 11:59:03;;;;;;;1.00;0.40;;;11.50;97.50;;;;;;4970260;28;20465;-74
2022/05/06 12:01:35;;;;;;;1.15;0.50;;;11.40;97.90;;;;;;4968585;28;20400;-72
2022/05/06 12:04:12;;;;;;;2.22;0.63;;;11.40;98.00;;;;;;4980814;28;20038;-72
2022/05/06 12:06:48;;;;;;;0.60;0.50;;;11.30;98.20;;;;;;4980756;28;20026;-72
2022/05/06 12:09:24;;;;;;;1.20;0.77;;;11.20;98.80;;;;;;4981526;28;20019;-72
2022/05/06 12:12:10;;;;;;;1.80;0.80;;;11.10;98.60;;;;;;4985251;28;20070;-72
2022/05/06 12:14:38;;;;;;;;;;;11.10;98.90;;;;;;4987797;28;20038;-72
2022/05/06 12:17:10;;;;;;;1.70;0.88;;;11.00;99.30;;;;;;4990591;28;19913;-74
2022/05/06 12:19:45;;;;;;;1.65;0.70;;;11.00;99.40;;;;;;4991237;28;20062;-73
2022/05/06 12:22:21;;;;;;;1.15;0.50;;;11.00;99.00;;;;;;4989336;28;20384;-73
2022/05/06 12:24:56;;;;;;;1.88;0.73;;;11.00;97.80;;;;;;4981574;28;20050;-73
2022/05/06 12:27:31;;;;;;;1.67;0.40;;;11.00;98.20;;;;;;4992147;28;20104;-73
2022/05/06 12:30:00;;;;;;;2.90;0.40;;;11.00;97.80;;;;;;4991139;28;20708;-73
2022/05/06 12:32:28;;;;;;;0.60;0.32;;;11.00;97.70;;;;;;4989350;28;20035;-73
2022/05/06 12:35:11;;;;;;;2.53;0.47;;;11.10;97.80;;;;;;4994456;28;20061;-73
2022/05/06 12:37:55;;;;;;;0.68;0.30;;;11.00;97.60;;;;;;4992064;28;20476;-74
2022/05/06 12:40:32;;;;;;;2.65;0.63;;;11.00;97.60;;;;;;4992069;28;20034;-73
2022/05/06 12:43:12;;;;;;;0.70;0.30;;;11.00;97.50;;;;;;4983309;28;20486;-74
2022/05/06 12:45:53;;;;;;;1.10;0.25;;;11.00;97.50;;;;;;4987046;28;20030;-73
2022/05/06 12:51:07;;;;;;;2.45;0.30;;;11.00;97.50;;;;;;4981950;28;20037;-72
2022/05/06 12:53:37;;;;;;;0.75;0.45;;;11.00;98.10;;;;;;4987201;28;20374;-72
2022/05/06 12:56:05;;;;;;;1.33;0.30;;;11.10;98.00;;;;;;4986865;28;20400;-73
2022/05/06 12:58:33;;;;;;;4.07;0.70;;;11.10;98.00;;;;;;4992294;28;20071;-72
2022/05/06 13:01:00;;;;;;;0.98;0.50;;;11.00;97.60;;;;;;4984071;28;20361;-73
2022/05/06 13:03:29;;;;;;;2.42;0.63;;;10.90;98.00;;;;;;4989459;28;20388;-73
2022/05/06 13:05:56;;;;;;;2.30;0.95;;;10.80;98.10;;;;;;4990796;28;20044;-74
2022/05/06 13:08:24;;;;;;;1.27;0.60;;;10.70;98.60;;;;;;4985423;28;20030;-73
2022/05/06 13:10:52;;;;;;;0.70;0.50;;;10.60;99.30;;;;;;4990699;28;20030;-73
2022/05/06 13:13:19;;;;;;;1.60;0.65;;;10.50;99.50;;;;;;4987086;28;20018;-72
2022/05/06 13:15:47;;;;;;;1.40;1.15;;;10.40;99.50;;;;;;4991458;28;20527;-72
2022/05/06 13:18:15;;;;;;;2.35;1.27;;;10.30;99.90;;;;;;4965917;28;20113;-73
2022/05/06 13:20:44;;;;;;;2.10;1.05;;;10.20;99.90;;;;;;4976513;28;20038;-73
2022/05/06 13:23:11;;;;;;;1.55;1.15;;;10.10;99.90;;;;;;4990057;28;20030;-73
2022/05/06 13:25:38;;;;;;;2.65;0.90;;;10.00;99.90;;;;;;4992270;28;20038;-72
2022/05/06 13:28:06;;;;;;;2.25;0.93;;;9.90;99.90;;;;;;4989682;28;20030;-72
2022/05/06 13:30:33;;;;;;;3.55;1.58;;;9.80;99.90;;;;;;4991347;28;20796;-73
2022/05/06 13:33:01;;;;;;;1.70;0.93;;;9.70;99.90;;;;;;4984494;28;20045;-72
2022/05/06 13:35:28;;;;;;;3.15;1.30;;;9.70;99.90;;;;;;4989409;28;20392;-72
2022/05/06 13:37:59;;;;;;;1.50;0.85;;;9.60;99.90;;;;;;4976840;28;20231;-72
2022/05/06 13:40:27;;;;;;;1.83;0.70;;;9.50;99.90;;;;;;4988457;28;20034;-73
2022/05/06 13:42:55;;;;;;;2.42;0.77;;;9.50;99.90;;;;;;4976840;28;20035;-73
2022/05/06 13:45:22;;;;;;;1.63;0.70;;;9.40;99.90;;;;;;4983217;28;20757;-73